world map with ARN marked

ARN - Airport

This information may not be accurate or current and is not valid for navigation or flight planning. No warranty of fitness for any purpose is made or implied.

flag of Sweden

Donate via PayPal

Additional information is available on the NEW Great Circle Mapper

Location
City:  Stockholm, Stockholms län, Sweden
Name:Arlanda
ICAO / IATA:ESSA / ARN

Details
Type:Airport (Aerodrome, Airfield)
Use:Public/Civil
Latitude:59°39'07"N (59.651944)
Longitude:17°55'07"E (17.918611)
Datum:other
Elevation:137 ft (42 m)
Runways:3
Longest:10830 × 148 ft (3301 × 45 m)

Time
Timezone:UTC+1 (DST+4)
Local Time:

Weather
METAR:ESSA  160220Z 17004KT 9999 BKN040 14/13 Q1015 NOSIG
TAF:ESSA  152330Z 1600/1624 16004KT CAVOK BECMG 1607/1609 22010KT

Related Locations
Nearby:
Farthest:CHT: 11181 mi / 17994 km
Waitangi [Tuuta], CIT, NZ

Find:

   beyond  
but within

Other Information
Maps:
Links:
Sources:

  


 


Great Circle Mapper   Great Circle Mapper
Great Circle Mapper FAQ   Great Circle Mapper FAQ
  Karl's Home Page
KLS²   KLS² Home
   GC on Facebook
Airlines of the World   Airlines of the World
Donate via PayPal


Copyright © 2004-2018, Karl L. Swartz. All rights reserved.
All trademarks mentioned herein belong to their respective owners.

Please see credits for attribution and copyright information.

Karl Swartz <karl@kls2.com>
  Powered by FreeBSD
Valid HTML 4.01!
Labeled with ICRA
hCard Microformat
Geo Microformat